Oshawa, Canada
Current Conditions -  °F | °C
As of 11:00 AM on Monday 22 Dec 2014 (Local Time) from CYOO Reporting Station
Overcast Overcast  
Wind Chill: 26°   Ceiling: 1900
Heat Index: 34°   Visibility: 9mi
Dew Point: 27°   Wind: 9mph
Humidity: 75%   Direction: 110°ESE
Pressure: 30.19"   Gusts: 20mph
Location:  43.89°N, 78.86°W
Report Text: CYOO 221600Z AUTO 11008G17KT 9SM OVC019 01/M03 A3019 RMK SLP229
Loading
Personal Weather Stations






























Interactive Weather Map New forecast layout! Learn more

10-Day Weather Forecast

Advertisements
Track Severe Weather on mobile